createdAt,value
2019-03-25T00:01:01.496Z,53.90
2019-03-25T00:03:30.166Z,53.84
2019-03-25T00:05:58.886Z,56.68
2019-03-25T00:08:27.561Z,55.40
2019-03-25T00:10:56.228Z,54.22
2019-03-25T00:13:24.906Z,53.82
2019-03-25T00:15:53.567Z,52.63
2019-03-25T00:18:22.284Z,52.23
2019-03-25T00:20:50.951Z,52.94
2019-03-25T00:23:19.612Z,53.00
2019-03-25T00:25:48.272Z,53.23
2019-03-25T00:28:16.936Z,55.19
2019-03-25T00:30:45.608Z,53.36
2019-03-25T00:33:14.292Z,53.01
2019-03-25T00:35:42.958Z,54.16
2019-03-25T00:38:11.617Z,52.54
2019-03-25T00:40:40.290Z,52.96
2019-03-25T00:43:08.953Z,53.33
2019-03-25T00:45:37.626Z,52.02
2019-03-25T00:48:06.293Z,52.46
2019-03-25T00:50:34.964Z,52.73
2019-03-25T00:53:03.647Z,53.85
2019-03-25T00:55:32.308Z,54.05
2019-03-25T00:58:00.975Z,55.15
2019-03-25T01:00:29.650Z,54.65
2019-03-25T01:02:58.319Z,54.51
2019-03-25T01:05:26.987Z,54.16
2019-03-25T01:07:55.650Z,54.55
2019-03-25T01:10:24.308Z,54.72
2019-03-25T01:12:52.972Z,55.32
2019-03-25T01:15:21.649Z,56.57
2019-03-25T01:17:50.320Z,56.19
2019-03-25T01:20:19.019Z,56.15
2019-03-25T01:22:47.728Z,56.30
2019-03-25T01:25:16.392Z,56.19
2019-03-25T01:27:45.064Z,55.79
2019-03-25T01:30:13.734Z,56.41
2019-03-25T01:32:42.411Z,55.77
2019-03-25T01:35:11.169Z,55.08
2019-03-25T01:37:39.856Z,54.77
2019-03-25T01:40:09.010Z,55.41
2019-03-25T01:42:37.675Z,55.08
2019-03-25T01:45:07.036Z,55.42
2019-03-25T01:47:35.719Z,55.86
2019-03-25T01:50:06.387Z,55.63
2019-03-25T01:52:35.044Z,55.04
2019-03-25T01:55:13.055Z,55.38
2019-03-25T01:57:34.295Z,55.79
2019-03-25T02:00:03.774Z,55.59
2019-03-25T02:02:32.438Z,55.41
2019-03-25T02:05:01.099Z,55.37
2019-03-25T02:07:29.764Z,55.35
2019-03-25T02:09:58.433Z,55.09
2019-03-25T02:12:27.103Z,55.43
2019-03-25T02:14:55.765Z,56.09
2019-03-25T02:17:24.426Z,56.60
2019-03-25T02:19:53.108Z,56.86
2019-03-25T02:22:21.769Z,57.79
2019-03-25T02:24:50.435Z,56.77
2019-03-25T02:27:19.110Z,56.82
2019-03-25T02:29:47.767Z,57.41
2019-03-25T02:32:16.437Z,57.74
2019-03-25T02:34:45.114Z,58.35
2019-03-25T02:37:13.770Z,58.11
2019-03-25T02:39:42.427Z,58.25
2019-03-25T02:42:11.104Z,55.90
2019-03-25T02:44:39.764Z,55.39
2019-03-25T02:47:08.416Z,55.32
2019-03-25T02:49:37.191Z,55.56
2019-03-25T02:52:05.848Z,55.77
2019-03-25T02:54:34.520Z,55.87
2019-03-25T02:57:03.276Z,56.23
2019-03-25T02:59:31.957Z,56.50
2019-03-25T03:02:00.627Z,57.28
2019-03-25T03:04:29.303Z,56.71
2019-03-25T03:06:57.960Z,56.74
2019-03-25T03:09:26.688Z,56.63
2019-03-25T03:11:55.339Z,56.54
2019-03-25T03:14:24.004Z,56.38
2019-03-25T03:16:52.662Z,56.52
2019-03-25T03:19:21.328Z,56.66
2019-03-25T03:21:50.003Z,56.82
2019-03-25T03:24:18.669Z,57.86
2019-03-25T03:26:47.326Z,58.90
2019-03-25T03:29:15.989Z,58.13
2019-03-25T03:31:44.661Z,58.17
2019-03-25T03:34:13.330Z,58.50
2019-03-25T03:36:42.020Z,58.64
2019-03-25T03:39:10.668Z,59.46
2019-03-25T03:41:39.446Z,59.93
2019-03-25T03:44:08.173Z,60.38
2019-03-25T03:46:36.881Z,60.79
2019-03-25T03:49:05.545Z,60.88
2019-03-25T03:51:34.809Z,61.28
2019-03-25T03:54:03.586Z,60.83
2019-03-25T03:56:32.555Z,61.26
2019-03-25T03:59:04.027Z,61.64
2019-03-25T04:01:32.688Z,61.25
2019-03-25T04:04:01.382Z,61.40
2019-03-25T04:06:30.025Z,61.54
2019-03-25T04:08:58.702Z,60.93
2019-03-25T04:11:27.370Z,60.47
2019-03-25T04:13:56.054Z,60.46
2019-03-25T04:16:24.728Z,60.55
2019-03-25T04:18:53.392Z,60.42
2019-03-25T04:21:22.061Z,60.33
2019-03-25T04:23:50.749Z,61.24
2019-03-25T04:26:28.465Z,60.82
2019-03-25T04:28:49.818Z,60.17
2019-03-25T04:31:18.496Z,59.79
2019-03-25T04:33:47.143Z,59.94
2019-03-25T04:36:15.835Z,59.85
2019-03-25T04:38:44.501Z,60.03
2019-03-25T04:41:13.176Z,60.21
2019-03-25T04:43:41.911Z,60.52
2019-03-25T04:46:10.531Z,60.76
2019-03-25T04:48:39.201Z,60.91
2019-03-25T04:51:08.167Z,61.33
2019-03-25T04:53:36.950Z,61.11
2019-03-25T04:56:05.618Z,61.09
2019-03-25T04:58:34.287Z,60.82
2019-03-25T05:01:02.959Z,60.60
2019-03-25T05:03:31.659Z,59.91
2019-03-25T05:06:00.320Z,59.29
2019-03-25T05:08:28.988Z,58.32
2019-03-25T05:10:57.667Z,57.83
2019-03-25T05:13:26.342Z,57.53
2019-03-25T05:15:55.008Z,57.42
2019-03-25T05:18:23.671Z,57.71
2019-03-25T05:20:52.338Z,57.59
2019-03-25T05:23:21.002Z,56.62
2019-03-25T05:25:49.675Z,56.45
2019-03-25T05:28:18.354Z,55.75
2019-03-25T05:30:47.028Z,55.74
2019-03-25T05:33:15.689Z,54.38
2019-03-25T05:35:46.743Z,52.92
2019-03-25T05:38:14.756Z,51.72
2019-03-25T05:40:43.438Z,49.84
2019-03-25T05:43:12.108Z,48.17
2019-03-25T05:45:40.771Z,46.27
2019-03-25T05:48:09.459Z,45.36
2019-03-25T05:50:38.139Z,44.82
2019-03-25T05:53:06.822Z,43.88
2019-03-25T05:55:35.997Z,42.90
2019-03-25T05:58:04.679Z,42.38
2019-03-25T06:00:34.912Z,41.25
2019-03-25T06:03:03.587Z,40.60
2019-03-25T06:05:32.281Z,39.23
2019-03-25T06:08:00.960Z,38.45
2019-03-25T06:10:29.633Z,37.84
2019-03-25T06:12:58.362Z,37.70
2019-03-25T06:15:27.056Z,38.81
2019-03-25T06:17:55.727Z,38.06
2019-03-25T06:20:24.407Z,37.76
2019-03-25T06:22:53.099Z,37.30
2019-03-25T06:25:21.795Z,36.39
2019-03-25T06:27:50.544Z,36.43
2019-03-25T06:30:20.028Z,35.47
2019-03-25T06:32:48.707Z,34.76
2019-03-25T06:35:17.374Z,33.34
2019-03-25T06:37:46.066Z,33.28
2019-03-25T06:40:14.845Z,31.97
2019-03-25T06:42:43.527Z,31.38
2019-03-25T06:45:13.420Z,30.59
2019-03-25T06:47:42.137Z,29.88
2019-03-25T06:50:11.072Z,29.93
2019-03-25T06:52:39.722Z,29.99
2019-03-25T06:55:09.153Z,29.10
2019-03-25T06:57:38.825Z,27.97
2019-03-25T07:00:09.576Z,26.27
2019-03-25T07:02:38.260Z,26.27
2019-03-25T07:05:07.363Z,26.41
2019-03-25T07:07:36.053Z,25.91
2019-03-25T07:10:06.876Z,26.37
2019-03-25T07:12:36.954Z,26.37
2019-03-25T07:15:07.992Z,26.14
2019-03-25T07:17:36.684Z,25.54
2019-03-25T07:20:07.689Z,26.21
2019-03-25T07:22:36.377Z,26.12
2019-03-25T07:25:06.260Z,25.71
2019-03-25T07:27:37.026Z,25.33
2019-03-25T07:30:08.076Z,27.19
2019-03-25T07:32:36.886Z,24.66
2019-03-25T07:35:07.269Z,24.66
2019-03-25T07:37:35.964Z,23.36
2019-03-25T07:40:10.518Z,22.40
2019-03-25T07:42:39.208Z,21.70
2019-03-25T07:45:08.902Z,21.81
2019-03-25T07:47:38.076Z,21.06
2019-03-25T07:50:08.043Z,20.39
2019-03-25T07:52:36.804Z,20.48
2019-03-25T07:55:06.287Z,20.67
2019-03-25T07:57:35.186Z,20.35
2019-03-25T08:00:13.393Z,19.67
2019-03-25T08:02:36.832Z,19.19
2019-03-25T08:05:06.435Z,19.15
2019-03-25T08:07:35.113Z,18.55
2019-03-25T08:10:04.531Z,19.66
2019-03-25T08:12:33.250Z,19.20
2019-03-25T08:15:01.974Z,19.05
2019-03-25T08:17:30.667Z,18.65
2019-03-25T08:19:59.398Z,17.56
2019-03-25T08:22:28.082Z,17.35
2019-03-25T08:24:56.772Z,17.43
2019-03-25T08:27:25.482Z,17.57
2019-03-25T08:29:54.348Z,17.34
2019-03-25T08:32:23.153Z,17.30
2019-03-25T08:34:51.815Z,17.65
2019-03-25T08:37:20.515Z,18.15
2019-03-25T08:39:49.206Z,17.51
2019-03-25T08:42:17.884Z,17.14
2019-03-25T08:44:46.640Z,16.63
2019-03-25T08:47:15.429Z,16.49
2019-03-25T08:49:44.318Z,16.45
2019-03-25T08:52:13.286Z,16.40
2019-03-25T08:54:42.068Z,16.39
2019-03-25T08:57:10.840Z,15.70
2019-03-25T08:59:39.520Z,15.91
2019-03-25T09:02:08.232Z,15.76
2019-03-25T09:04:37.048Z,14.93
2019-03-25T09:07:05.729Z,14.95
2019-03-25T09:09:34.420Z,14.62
2019-03-25T09:12:03.184Z,14.52
2019-03-25T09:14:32.074Z,14.16
2019-03-25T09:17:00.807Z,13.95
2019-03-25T09:19:29.485Z,13.63
2019-03-25T09:21:58.170Z,13.53
2019-03-25T09:24:26.884Z,13.75
2019-03-25T09:26:55.631Z,14.47
2019-03-25T09:29:24.443Z,13.78
2019-03-25T09:31:53.231Z,14.60
2019-03-25T09:34:21.936Z,13.86
2019-03-25T09:36:50.832Z,13.15
2019-03-25T09:39:19.535Z,13.69
2019-03-25T09:41:48.235Z,13.77
2019-03-25T09:44:16.922Z,13.06
2019-03-25T09:46:45.611Z,12.93
2019-03-25T09:49:14.296Z,13.22
2019-03-25T09:51:43.008Z,13.61
2019-03-25T09:54:11.699Z,13.61
2019-03-25T09:56:40.392Z,13.33
2019-03-25T09:59:09.280Z,12.81
2019-03-25T10:01:37.944Z,12.54
2019-03-25T10:04:06.800Z,12.16
2019-03-25T10:06:35.448Z,12.28
2019-03-25T10:09:05.664Z,12.38
2019-03-25T10:11:34.361Z,12.33
2019-03-25T10:14:03.097Z,12.77
2019-03-25T10:16:31.767Z,12.89
2019-03-25T10:19:00.459Z,12.62
2019-03-25T10:21:29.298Z,12.20
2019-03-25T10:23:58.026Z,12.17
2019-03-25T10:26:26.688Z,12.33
2019-03-25T10:28:55.412Z,12.03
2019-03-25T10:31:24.098Z,11.83
2019-03-25T10:33:52.888Z,12.26
2019-03-25T10:36:21.558Z,13.32
2019-03-25T10:38:50.271Z,12.86
2019-03-25T10:41:18.986Z,12.48
2019-03-25T10:43:47.895Z,11.90
2019-03-25T10:46:16.617Z,12.85
2019-03-25T10:48:45.309Z,12.21
2019-03-25T10:51:13.996Z,11.65
2019-03-25T10:53:42.687Z,11.99
2019-03-25T10:56:11.406Z,11.73
2019-03-25T10:58:40.068Z,11.42
2019-03-25T11:01:09.663Z,10.87
2019-03-25T11:03:39.603Z,10.66
2019-03-25T11:06:08.387Z,10.61
2019-03-25T11:08:37.316Z,11.51
2019-03-25T11:11:06.430Z,11.32
2019-03-25T11:13:35.341Z,11.58
2019-03-25T11:16:04.143Z,10.35
2019-03-25T11:18:38.256Z,10.09
2019-03-25T11:21:16.547Z,9.96
2019-03-25T11:23:45.353Z,10.04
2019-03-25T11:26:14.073Z,9.74
2019-03-25T11:28:42.832Z,10.46
2019-03-25T11:31:12.009Z,9.72
2019-03-25T11:33:40.685Z,9.54
2019-03-25T11:36:09.594Z,9.47
2019-03-25T11:38:38.381Z,10.27
2019-03-25T11:41:07.199Z,10.98
2019-03-25T11:43:35.970Z,10.43
2019-03-25T11:46:05.520Z,10.51
2019-03-25T11:48:34.343Z,9.33
2019-03-25T11:51:03.034Z,9.63
2019-03-25T11:53:31.797Z,9.72
2019-03-25T11:56:00.508Z,9.96
2019-03-25T11:58:29.363Z,9.66
2019-03-25T12:00:58.114Z,10.27
2019-03-25T12:03:26.816Z,10.13
2019-03-25T12:05:55.520Z,10.94
2019-03-25T12:08:24.629Z,11.47
2019-03-25T12:10:53.334Z,11.69
2019-03-25T12:13:22.139Z,10.74
2019-03-25T12:15:50.872Z,10.13
2019-03-25T12:18:19.580Z,10.17
2019-03-25T12:20:48.266Z,10.97
2019-03-25T12:23:26.028Z,10.43
2019-03-25T12:25:47.969Z,10.06
2019-03-25T12:28:16.702Z,10.10
2019-03-25T12:30:45.599Z,9.86
2019-03-25T12:33:14.511Z,10.02
2019-03-25T12:35:43.264Z,10.01
2019-03-25T12:38:11.970Z,9.69
2019-03-25T12:40:41.168Z,10.06
2019-03-25T12:43:09.907Z,10.33
2019-03-25T12:45:39.249Z,9.81
2019-03-25T12:48:09.059Z,10.06
2019-03-25T12:50:38.049Z,9.88
2019-03-25T12:53:06.874Z,10.02
2019-03-25T12:55:35.690Z,11.12
2019-03-25T12:58:03.143Z,10.87
2019-03-25T13:00:36.911Z,10.52
2019-03-25T13:03:06.423Z,10.18
2019-03-25T13:05:35.361Z,9.97
2019-03-25T13:08:04.214Z,9.42
2019-03-25T13:10:33.007Z,9.96
2019-03-25T13:13:01.864Z,10.08
2019-03-25T13:15:30.552Z,10.43
2019-03-25T13:17:59.375Z,10.19
2019-03-25T13:20:28.101Z,10.87
2019-03-25T13:22:56.869Z,12.29
2019-03-25T13:25:25.808Z,13.57
2019-03-25T13:27:54.540Z,13.90
2019-03-25T13:30:23.459Z,15.27
2019-03-25T13:32:52.575Z,16.14
2019-03-25T13:35:21.395Z,17.24
2019-03-25T13:37:50.188Z,17.89
2019-03-25T13:40:19.287Z,17.46
2019-03-25T13:42:48.127Z,16.01
2019-03-25T13:45:16.849Z,15.46
2019-03-25T13:47:45.540Z,14.85
2019-03-25T13:50:14.241Z,13.95
2019-03-25T13:52:43.258Z,13.68
2019-03-25T13:55:12.166Z,13.27
2019-03-25T13:57:40.874Z,13.57
2019-03-25T14:00:10.065Z,13.45
2019-03-25T14:02:38.926Z,13.77
2019-03-25T14:05:08.515Z,13.59
2019-03-25T14:07:37.249Z,13.44
2019-03-25T14:10:09.156Z,14.81
2019-03-25T14:12:39.484Z,15.73
2019-03-25T14:15:11.435Z,15.78
2019-03-25T14:17:40.468Z,15.17
2019-03-25T14:20:09.886Z,15.33
2019-03-25T14:22:38.868Z,15.84
2019-03-25T14:25:08.187Z,18.44
2019-03-25T14:27:36.969Z,19.67
2019-03-25T14:30:14.345Z,19.80
2019-03-25T14:32:39.237Z,19.91
2019-03-25T14:35:09.007Z,19.91
2019-03-25T14:37:37.705Z,19.12
2019-03-25T14:40:08.630Z,20.43
2019-03-25T14:42:37.399Z,19.96
2019-03-25T14:45:07.553Z,20.21
2019-03-25T14:47:36.315Z,20.56
2019-03-25T14:50:07.861Z,20.41
2019-03-25T14:52:36.600Z,19.57
2019-03-25T14:55:06.032Z,17.24
2019-03-25T14:57:34.734Z,16.79
2019-03-25T15:00:04.661Z,17.00
2019-03-25T15:02:33.701Z,17.55
2019-03-25T15:05:02.683Z,17.30
2019-03-25T15:07:32.884Z,16.84
2019-03-25T15:10:01.763Z,17.00
2019-03-25T15:12:30.776Z,17.60
2019-03-25T15:14:59.759Z,18.18
2019-03-25T15:17:28.442Z,20.09
2019-03-25T15:19:57.342Z,18.22
2019-03-25T15:22:26.335Z,18.67
2019-03-25T15:24:55.048Z,19.56
2019-03-25T15:27:23.803Z,19.80
2019-03-25T15:29:52.504Z,19.47
2019-03-25T15:32:21.231Z,19.25
2019-03-25T15:34:50.229Z,18.19
2019-03-25T15:37:18.872Z,18.07
2019-03-25T15:39:47.617Z,17.34
2019-03-25T15:42:16.411Z,18.08
2019-03-25T15:44:45.118Z,17.68
2019-03-25T15:47:14.139Z,18.15
2019-03-25T15:49:42.884Z,17.90
2019-03-25T15:52:11.596Z,18.11
2019-03-25T15:54:40.284Z,17.84
2019-03-25T15:57:09.221Z,17.53
2019-03-25T15:59:37.898Z,17.84
2019-03-25T16:02:06.664Z,18.17
2019-03-25T16:04:35.564Z,18.05
2019-03-25T16:07:05.460Z,18.45
2019-03-25T16:09:34.155Z,17.80
2019-03-25T16:12:04.907Z,18.12
2019-03-25T16:14:33.311Z,18.02
2019-03-25T16:17:01.972Z,18.26
2019-03-25T16:19:30.652Z,18.52
2019-03-25T16:21:59.449Z,18.84
2019-03-25T16:24:28.141Z,18.72
2019-03-25T16:26:56.818Z,19.90
2019-03-25T16:29:25.497Z,19.27
2019-03-25T16:31:54.200Z,20.28
2019-03-25T16:34:34.199Z,20.24
2019-03-25T16:37:02.878Z,20.75
2019-03-25T16:39:31.551Z,20.42
2019-03-25T16:42:00.466Z,20.91
2019-03-25T16:44:29.139Z,20.98
2019-03-25T16:46:57.824Z,21.22
2019-03-25T16:49:26.531Z,21.44
2019-03-25T16:51:55.223Z,21.75
2019-03-25T16:54:23.882Z,22.11
2019-03-25T16:56:52.563Z,22.89
2019-03-25T16:59:21.496Z,21.97
2019-03-25T17:01:50.196Z,22.31
2019-03-25T17:04:18.868Z,22.38
2019-03-25T17:06:47.554Z,22.19
2019-03-25T17:09:16.234Z,22.19
2019-03-25T17:11:44.924Z,22.30
2019-03-25T17:14:13.608Z,22.11
2019-03-25T17:16:42.263Z,22.15
2019-03-25T17:19:10.969Z,22.24
2019-03-25T17:21:39.687Z,22.23
2019-03-25T17:24:08.447Z,22.19
2019-03-25T17:26:42.396Z,22.08
2019-03-25T17:29:07.569Z,22.12
2019-03-25T17:31:36.267Z,22.65
2019-03-25T17:34:05.001Z,22.55
2019-03-25T17:36:33.724Z,23.29
2019-03-25T17:39:03.137Z,23.55
2019-03-25T17:41:31.941Z,23.58
2019-03-25T17:44:00.654Z,25.18
2019-03-25T17:46:29.331Z,25.77
2019-03-25T17:48:58.037Z,25.95
2019-03-25T17:51:26.810Z,26.34
2019-03-25T17:53:55.568Z,26.74
2019-03-25T17:56:24.275Z,26.94
2019-03-25T17:58:53.190Z,27.48
2019-03-25T18:01:31.783Z,27.43
2019-03-25T18:03:52.472Z,27.73
2019-03-25T18:06:21.163Z,27.92
2019-03-25T18:08:49.879Z,28.14
2019-03-25T18:11:18.566Z,28.26
2019-03-25T18:13:47.295Z,28.58
2019-03-25T18:16:15.996Z,28.81
2019-03-25T18:18:44.682Z,28.82
2019-03-25T18:21:13.909Z,28.86
2019-03-25T18:23:42.714Z,29.11
2019-03-25T18:26:11.396Z,29.46
2019-03-25T18:28:40.074Z,29.56
2019-03-25T18:31:08.758Z,29.73
2019-03-25T18:33:37.446Z,30.02
2019-03-25T18:36:06.141Z,30.40
2019-03-25T18:38:34.820Z,31.39
2019-03-25T18:41:03.548Z,30.98
2019-03-25T18:43:32.342Z,31.35
2019-03-25T18:46:01.371Z,31.32
2019-03-25T18:48:30.048Z,32.06
2019-03-25T18:51:01.916Z,32.74
2019-03-25T18:53:30.591Z,33.41
2019-03-25T18:55:59.298Z,32.78
2019-03-25T18:58:28.021Z,32.50
2019-03-25T19:00:56.736Z,32.86
2019-03-25T19:03:25.408Z,33.33
2019-03-25T19:05:54.206Z,33.19
2019-03-25T19:08:23.626Z,33.39
2019-03-25T19:10:52.299Z,33.34
2019-03-25T19:13:20.996Z,33.67
2019-03-25T19:15:49.669Z,33.63
2019-03-25T19:18:18.363Z,33.98
2019-03-25T19:20:47.867Z,33.98
2019-03-25T19:23:16.545Z,34.25
2019-03-25T19:25:45.225Z,34.38
2019-03-25T19:28:14.333Z,34.40
2019-03-25T19:30:43.086Z,34.51
2019-03-25T19:33:11.731Z,34.74
2019-03-25T19:35:40.451Z,34.90
2019-03-25T19:38:09.283Z,35.25
2019-03-25T19:40:37.970Z,35.20
2019-03-25T19:43:06.656Z,35.21
2019-03-25T19:45:35.328Z,35.43
2019-03-25T19:48:04.544Z,35.29
2019-03-25T19:50:33.451Z,35.13
2019-03-25T19:53:02.127Z,34.87
2019-03-25T19:55:30.798Z,35.12
2019-03-25T19:57:59.497Z,35.31
2019-03-25T20:00:36.492Z,35.86
2019-03-25T20:03:05.832Z,36.34
2019-03-25T20:05:34.513Z,36.72
2019-03-25T20:08:04.947Z,36.77
2019-03-25T20:10:36.092Z,36.83
2019-03-25T20:13:05.074Z,37.20
2019-03-25T20:15:45.584Z,37.33
2019-03-25T20:18:05.082Z,36.94
2019-03-25T20:20:33.799Z,35.96
2019-03-25T20:23:02.512Z,35.56
2019-03-25T20:25:31.187Z,35.38
2019-03-25T20:27:59.850Z,35.11
2019-03-25T20:30:28.587Z,35.28
2019-03-25T20:32:57.243Z,35.57
2019-03-25T20:35:25.919Z,35.71
2019-03-25T20:37:54.580Z,35.92
2019-03-25T20:40:23.269Z,36.25
2019-03-25T20:42:51.935Z,36.56
2019-03-25T20:45:20.634Z,36.76
2019-03-25T20:47:49.542Z,37.21
2019-03-25T20:50:18.217Z,37.55
2019-03-25T20:52:47.045Z,37.75
2019-03-25T20:55:23.387Z,38.06
2019-03-25T20:57:52.123Z,38.23
2019-03-25T21:00:23.704Z,38.44
2019-03-25T21:02:52.426Z,38.68
2019-03-25T21:05:21.108Z,38.96
2019-03-25T21:07:49.796Z,39.33
2019-03-25T21:10:18.558Z,39.32
2019-03-25T21:12:47.398Z,39.40
2019-03-25T21:15:16.136Z,39.35
2019-03-25T21:17:44.769Z,39.16
2019-03-25T21:20:13.563Z,39.23
2019-03-25T21:22:42.222Z,39.04
2019-03-25T21:25:11.012Z,38.87
2019-03-25T21:27:39.723Z,38.74
2019-03-25T21:30:08.711Z,38.62
2019-03-25T21:32:37.408Z,38.36
2019-03-25T21:35:07.343Z,38.43
2019-03-25T21:37:36.229Z,39.12
2019-03-25T21:40:06.842Z,38.98
2019-03-25T21:42:36.007Z,38.96
2019-03-25T21:45:07.973Z,39.26
2019-03-25T21:47:36.730Z,40.18
2019-03-25T21:50:09.243Z,39.89
2019-03-25T21:52:38.206Z,39.75
2019-03-25T21:55:07.795Z,39.77
2019-03-25T21:57:36.471Z,39.91
2019-03-25T22:00:07.347Z,40.16
2019-03-25T22:02:36.048Z,40.13
2019-03-25T22:05:06.674Z,40.14
2019-03-25T22:07:35.344Z,40.39
2019-03-25T22:10:04.819Z,40.12
2019-03-25T22:12:33.498Z,40.27
2019-03-25T22:15:02.167Z,40.21
2019-03-25T22:17:30.855Z,40.25
2019-03-25T22:19:59.553Z,40.22
2019-03-25T22:22:28.223Z,40.27
2019-03-25T22:24:56.905Z,41.06
2019-03-25T22:27:25.594Z,42.28
2019-03-25T22:29:54.272Z,40.91
2019-03-25T22:32:22.942Z,40.71
2019-03-25T22:34:51.669Z,40.47
2019-03-25T22:37:20.389Z,40.55
2019-03-25T22:39:49.079Z,40.59
2019-03-25T22:42:17.771Z,40.85
2019-03-25T22:44:46.456Z,40.94
2019-03-25T22:47:15.139Z,41.51
2019-03-25T22:49:43.820Z,41.83
2019-03-25T22:52:12.487Z,41.96
2019-03-25T22:54:41.157Z,42.31
2019-03-25T22:57:09.830Z,42.81
2019-03-25T22:59:38.578Z,43.24
2019-03-25T23:02:07.355Z,43.51
2019-03-25T23:04:36.064Z,43.66
2019-03-25T23:07:04.730Z,43.39
2019-03-25T23:09:33.412Z,43.44
2019-03-25T23:12:02.099Z,44.13
2019-03-25T23:14:31.053Z,44.13
2019-03-25T23:16:59.900Z,43.90
2019-03-25T23:19:28.752Z,44.49
2019-03-25T23:21:57.669Z,44.61
2019-03-25T23:24:26.517Z,44.20
2019-03-25T23:26:55.343Z,44.27
2019-03-25T23:29:24.192Z,43.59
2019-03-25T23:31:53.064Z,43.82
2019-03-25T23:34:21.930Z,43.57
2019-03-25T23:36:50.750Z,43.58
2019-03-25T23:39:19.614Z,43.40
2019-03-25T23:41:48.536Z,43.57
2019-03-25T23:44:17.829Z,44.02
2019-03-25T23:46:46.655Z,44.11
2019-03-25T23:49:15.512Z,47.71
2019-03-25T23:51:44.338Z,46.41
2019-03-25T23:54:14.094Z,47.61
2019-03-25T23:56:43.044Z,46.31
2019-03-25T23:59:11.890Z,45.15
